Time;durP1;ratioP1;P1;durP2;ratioP2;P2;SDS_P1;SDS_P2;PMS_P1;PMS_P2;Temp;Humidity;BMP_temperature;BMP_pressure;BME280_temperature;BME280_humidity;BME280_pressure;Samples;Min_cycle;Max_cycle;Signal;HPM_P1;HPM_P2
2023/07/17 00:00:11;;;;;;;3.30;0.52;;;;;;;17.47;63.27;100907.56;5008059;28;20058;-76
2023/07/17 00:02:39;;;;;;;4.80;0.70;;;;;;;17.46;63.72;100907.66;5007713;28;20076;-76
2023/07/17 00:05:07;;;;;;;8.70;0.93;;;;;;;17.43;63.50;100906.00;5007976;28;20069;-76
2023/07/17 00:07:34;;;;;;;9.45;1.35;;;;;;;17.42;63.90;100909.59;5007680;28;20533;-76
2023/07/17 00:10:01;;;;;;;5.97;1.42;;;;;;;17.35;63.68;100899.38;5007651;28;20049;-75
2023/07/17 00:12:28;;;;;;;5.93;1.00;;;;;;;17.39;63.94;100919.41;5007948;28;20061;-76
2023/07/17 00:14:55;;;;;;;3.78;0.93;;;;;;;17.38;63.86;100912.44;5006841;28;20077;-76
2023/07/17 00:17:22;;;;;;;8.20;1.40;;;;;;;17.36;63.87;100916.91;5007898;28;20050;-76
2023/07/17 00:19:55;;;;;;;4.75;0.73;;;;;;;17.33;64.11;100912.63;5007639;28;20442;-75
2023/07/17 00:22:23;;;;;;;5.57;1.20;;;;;;;17.33;64.00;100915.25;5007879;28;20493;-75
2023/07/17 00:24:50;;;;;;;6.38;1.35;;;;;;;17.33;64.34;100915.25;5007865;28;20093;-74
2023/07/17 00:27:17;;;;;;;5.50;1.02;;;;;;;17.31;64.25;100911.84;5007570;28;20104;-76
2023/07/17 00:29:44;;;;;;;5.85;0.80;;;;;;;17.30;64.29;100915.41;5007652;28;20046;-75
2023/07/17 00:32:12;;;;;;;4.68;0.80;;;;;;;17.27;64.32;100908.47;5007566;28;20049;-76
2023/07/17 00:34:39;;;;;;;10.48;1.02;;;;;;;17.05;64.41;100878.69;5007549;28;20046;-76
2023/07/17 00:37:08;;;;;;;7.40;1.00;;;;;;;17.27;64.32;100911.09;5007744;28;20054;-75
2023/07/17 00:39:35;;;;;;;4.60;0.80;;;;;;;17.25;64.49;100910.34;5007388;28;20505;-75
2023/07/17 00:42:03;;;;;;;7.25;0.98;;;;;;;17.26;64.47;100908.56;5007547;28;20049;-76
2023/07/17 00:44:29;;;;;;;7.25;1.27;;;;;;;17.23;64.62;100904.25;5007457;28;20053;-75
2023/07/17 00:46:57;;;;;;;5.93;1.55;;;;;;;17.24;64.83;100910.41;5005677;28;20053;-76
2023/07/17 00:49:28;;;;;;;8.02;1.10;;;;;;;17.22;64.58;100914.91;5007525;28;20054;-75
2023/07/17 00:51:57;;;;;;;5.72;1.05;;;;;;;17.20;64.44;100907.03;5006151;28;20052;-75
2023/07/17 00:54:28;;;;;;;6.40;0.85;;;;;;;17.20;64.54;100908.81;5007202;28;20049;-76
2023/07/17 00:56:58;;;;;;;10.35;1.15;;;;;;;17.19;64.74;100907.97;5007425;28;20050;-75
2023/07/17 00:59:25;;;;;;;8.93;1.27;;;;;;;17.18;64.64;100910.66;5005611;28;20045;-75
2023/07/17 01:01:53;;;;;;;10.15;1.05;;;;;;;17.16;64.66;100908.13;5006833;28;20750;-75
2023/07/17 01:04:21;;;;;;;8.93;1.08;;;;;;;17.16;64.63;100904.59;5004592;28;20054;-75
2023/07/17 01:06:48;;;;;;;6.78;0.95;;;;;;;17.14;64.90;100903.81;5007002;28;20052;-76
2023/07/17 01:09:18;;;;;;;5.85;0.95;;;;;;;17.13;64.44;100900.28;5008895;28;20045;-75
2023/07/17 01:11:46;;;;;;;6.03;1.00;;;;;;;17.13;64.70;100902.09;5010875;28;20054;-76
2023/07/17 01:14:17;;;;;;;10.57;1.23;;;;;;;17.12;64.74;100901.22;5010272;28;20046;-76
2023/07/17 01:16:45;;;;;;;6.90;0.85;;;;;;;17.11;64.49;100902.16;5010785;28;20173;-74
2023/07/17 01:19:12;;;;;;;6.47;0.75;;;;;;;17.10;64.50;100908.34;5010755;28;20081;-75
2023/07/17 01:21:46;;;;;;;5.55;1.15;;;;;;;17.09;64.51;100898.72;5011020;28;20053;-76
2023/07/17 01:24:15;;;;;;;5.32;0.75;;;;;;;17.08;64.44;100899.66;5010630;28;20056;-76
2023/07/17 01:26:42;;;;;;;6.22;0.95;;;;;;;17.07;64.60;100903.22;5010326;28;20046;-76
2023/07/17 01:29:08;;;;;;;6.35;0.95;;;;;;;17.06;64.53;100902.34;5010478;28;20529;-76
2023/07/17 01:31:36;;;;;;;8.65;1.20;;;;;;;17.07;64.67;100905.84;5010542;28;20403;-76
2023/07/17 01:34:03;;;;;;;9.57;2.00;;;;;;;17.06;64.33;100906.78;5010196;28;20137;-76
2023/07/17 01:36:31;;;;;;;2.22;0.80;;;;;;;17.05;64.50;100905.94;5010481;28;20582;-75
2023/07/17 01:38:58;;;;;;;7.75;1.60;;;;;;;17.04;64.63;100901.56;5010095;28;20050;-75
2023/07/17 01:41:26;;;;;;;5.68;1.27;;;;;;;17.00;64.50;100885.94;5010407;28;20056;-75
2023/07/17 01:43:53;;;;;;;9.10;1.50;;;;;;;17.02;64.69;100899.94;5009838;28;20062;-75
2023/07/17 01:46:20;;;;;;;10.55;1.17;;;;;;;17.02;64.98;100910.50;5010036;28;20050;-75
2023/07/17 01:48:48;;;;;;;5.88;0.95;;;;;;;16.97;64.91;100901.91;5009965;28;20060;-76
2023/07/17 01:51:14;;;;;;;8.10;1.00;;;;;;;16.98;64.94;100908.91;5010034;28;20061;-76
2023/07/17 01:53:41;;;;;;;13.80;1.00;;;;;;;16.97;64.99;100904.56;5009934;28;20052;-75
2023/07/17 01:56:08;;;;;;;6.35;0.77;;;;;;;16.94;65.21;100905.53;5009382;28;20050;-75
2023/07/17 01:58:37;;;;;;;8.75;0.80;;;;;;;16.94;65.32;100912.59;5009537;28;20061;-74
2023/07/17 02:01:04;;;;;;;7.22;1.70;;;;;;;16.92;65.44;100911.78;5009483;28;20065;-76
2023/07/17 02:03:32;;;;;;;10.10;1.45;;;;;;;16.91;65.50;100912.72;5007811;28;20049;-75
2023/07/17 02:05:59;;;;;;;9.77;1.80;;;;;;;16.86;65.63;100900.56;5009843;28;20046;-75
2023/07/17 02:08:26;;;;;;;7.70;1.60;;;;;;;16.90;65.70;100908.34;5009427;28;20129;-76
2023/07/17 02:10:53;;;;;;;8.52;1.08;;;;;;;16.90;65.66;100913.63;5009316;28;20617;-75
2023/07/17 02:13:20;;;;;;;3.42;1.52;;;;;;;16.90;65.60;100911.84;5009693;28;20515;-75
2023/07/17 02:15:49;;;;;;;6.15;0.98;;;;;;;16.88;65.66;100907.56;5009418;28;20067;-76
2023/07/17 02:18:15;;;;;;;8.80;1.00;;;;;;;16.89;65.78;100917.22;5009623;28;20556;-75
2023/07/17 02:20:42;;;;;;;9.52;1.08;;;;;;;16.86;65.84;100913.78;5009212;28;20129;-75
2023/07/17 02:23:09;;;;;;;3.35;0.93;;;;;;;16.85;66.03;100917.34;5009570;28;20403;-75
2023/07/17 02:25:36;;;;;;;8.82;1.23;;;;;;;16.85;65.68;100919.13;5009847;28;20050;-76
2023/07/17 02:28:03;;;;;;;15.07;1.65;;;;;;;16.85;65.77;100919.13;5009319;28;20056;-75
2023/07/17 02:30:30;;;;;;;9.35;1.10;;;;;;;16.83;65.84;100911.25;5009353;28;20096;-76
2023/07/17 02:32:59;;;;;;;9.48;1.27;;;;;;;16.83;66.10;100913.03;5009316;28;20050;-75
2023/07/17 02:35:26;;;;;;;12.52;1.70;;;;;;;16.82;66.06;100922.75;5008766;28;20056;-75
2023/07/17 02:37:52;;;;;;;4.63;1.00;;;;;;;16.80;66.14;100924.59;5008987;28;20071;-75
2023/07/17 02:40:19;;;;;;;7.95;1.17;;;;;;;16.81;66.24;100926.28;5009169;28;20426;-75
2023/07/17 02:42:46;;;;;;;6.70;1.50;;;;;;;16.79;66.26;100922.88;5006001;28;20618;-76
2023/07/17 02:45:13;;;;;;;7.97;1.30;;;;;;;16.72;66.22;100913.47;5009450;28;20053;-76
2023/07/17 02:47:39;;;;;;;11.85;1.60;;;;;;;16.79;66.35;100924.63;5009231;28;20050;-75
2023/07/17 02:50:08;;;;;;;7.68;0.90;;;;;;;16.77;66.16;100914.16;5007349;28;20042;-76
2023/07/17 02:52:36;;;;;;;3.45;0.85;;;;;;;16.78;66.33;100920.28;5008454;28;20046;-72
2023/07/17 02:55:05;;;;;;;11.25;1.48;;;;;;;16.76;66.59;100917.72;5006784;28;20454;-73
2023/07/17 02:57:34;;;;;;;9.65;1.25;;;;;;;16.75;66.77;100931.78;5008602;28;20484;-73
2023/07/17 03:00:02;;;;;;;8.13;1.33;;;;;;;16.75;66.72;100928.31;5006687;28;20050;-73
2023/07/17 03:02:29;;;;;;;8.02;1.50;;;;;;;16.72;66.65;100923.16;5008490;28;20068;-73
2023/07/17 03:04:56;;;;;;;9.25;1.60;;;;;;;16.73;66.68;100928.34;5006934;28;20097;-73
2023/07/17 03:07:24;;;;;;;12.63;1.80;;;;;;;16.73;66.82;100920.44;5008400;28;20395;-73
2023/07/17 03:09:51;;;;;;;6.30;1.08;;;;;;;16.74;66.78;100926.59;5008077;28;20723;-73
2023/07/17 03:12:18;;;;;;;3.50;1.15;;;;;;;16.74;66.89;100926.59;5008361;28;20050;-73
2023/07/17 03:14:45;;;;;;;6.63;1.15;;;;;;;16.74;66.98;100932.72;5007109;28;20056;-74
2023/07/17 03:17:12;;;;;;;7.45;1.17;;;;;;;16.73;66.87;100925.72;5008464;28;20517;-73
2023/07/17 03:19:38;;;;;;;12.52;1.30;;;;;;;16.72;66.90;100924.00;5007705;28;20477;-72
2023/07/17 03:22:06;;;;;;;9.25;1.70;;;;;;;16.73;66.91;100925.72;5008143;28;20049;-73
2023/07/17 03:24:34;;;;;;;8.93;1.38;;;;;;;16.75;67.28;100923.03;5008060;28;20045;-74
2023/07/17 03:27:01;;;;;;;10.07;1.30;;;;;;;16.74;67.36;100922.19;5008056;28;20442;-73
2023/07/17 03:29:28;;;;;;;8.65;2.15;;;;;;;16.74;67.29;100922.19;5008189;28;20046;-73
2023/07/17 03:31:55;;;;;;;9.75;1.27;;;;;;;16.75;67.47;100928.31;5007024;28;20053;-73
2023/07/17 03:34:22;;;;;;;9.13;1.70;;;;;;;16.75;67.36;100933.56;5007976;28;20056;-73
2023/07/17 03:36:48;;;;;;;6.22;1.23;;;;;;;16.77;67.55;100932.63;5007741;28;20133;-74
2023/07/17 03:39:15;;;;;;;10.05;1.42;;;;;;;16.77;67.72;100937.91;5008164;28;20417;-73
2023/07/17 03:41:44;;;;;;;5.90;1.45;;;;;;;16.78;67.63;100929.06;5007692;28;20052;-73
2023/07/17 03:44:12;;;;;;;14.63;1.52;;;;;;;16.79;67.87;100941.34;5007876;28;20409;-73
2023/07/17 03:46:39;;;;;;;10.25;1.23;;;;;;;16.80;67.77;100940.41;5007668;28;20050;-73
2023/07/17 03:49:06;;;;;;;12.38;2.00;;;;;;;16.81;67.79;100939.47;5007587;28;20056;-73
2023/07/17 03:51:32;;;;;;;8.73;1.30;;;;;;;16.84;67.88;100933.22;5006370;28;20050;-75
2023/07/17 03:53:59;;;;;;;11.93;1.40;;;;;;;16.84;67.79;100938.50;5006986;28;20128;-73
2023/07/17 03:56:26;;;;;;;13.05;1.55;;;;;;;16.89;67.84;100936.53;5007331;28;20046;-74
2023/07/17 03:58:55;;;;;;;16.52;2.03;;;;;;;16.92;67.56;100938.19;5007610;28;20056;-73
2023/07/17 04:01:21;;;;;;;13.13;2.33;;;;;;;16.94;67.62;100939.00;5007307;28;20573;-73
2023/07/17 04:03:48;;;;;;;8.18;1.35;;;;;;;16.98;67.60;100948.47;5007627;28;20469;-74
2023/07/17 04:06:15;;;;;;;12.45;2.40;;;;;;;17.00;67.51;100934.28;5007575;28;20060;-73
2023/07/17 04:08:42;;;;;;;10.55;1.80;;;;;;;17.05;67.35;100936.75;5006558;28;20137;-74
2023/07/17 04:11:09;;;;;;;8.15;1.30;;;;;;;17.08;67.53;100931.34;5007538;28;20038;-74
2023/07/17 04:13:36;;;;;;;14.00;1.83;;;;;;;17.12;67.15;100932.91;5007463;28;20185;-77
2023/07/17 04:16:05;;;;;;;12.73;1.50;;;;;;;17.16;67.13;100936.25;5007386;28;20050;-74
2023/07/17 04:18:32;;;;;;;8.77;2.13;;;;;;;17.20;67.06;100946.63;5007475;28;20091;-73
2023/07/17 04:20:59;;;;;;;13.15;1.65;;;;;;;17.22;66.66;100939.50;5007343;28;20050;-73
2023/07/17 04:23:25;;;;;;;11.95;1.08;;;;;;;17.26;66.97;100933.16;5007643;28;20709;-73
2023/07/17 04:25:52;;;;;;;11.77;1.30;;;;;;;17.30;66.87;100925.97;5007271;28;20060;-74
2023/07/17 04:28:19;;;;;;;8.38;1.20;;;;;;;17.29;66.79;100919.81;5007773;28;20050;-73
2023/07/17 04:30:46;;;;;;;9.63;1.27;;;;;;;17.37;66.42;100934.50;5004091;28;20050;-73
2023/07/17 04:33:14;;;;;;;12.23;1.27;;;;;;;17.37;66.85;100921.28;5007671;28;20065;-74
2023/07/17 04:35:41;;;;;;;12.18;1.25;;;;;;;17.44;66.63;100928.84;5007259;28;20061;-74
2023/07/17 04:38:08;;;;;;;8.07;1.25;;;;;;;17.49;66.83;100936.56;5007401;28;20058;-74
2023/07/17 04:40:35;;;;;;;8.07;1.10;;;;;;;17.55;66.66;100936.28;5007155;28;20062;-75
2023/07/17 04:43:02;;;;;;;5.60;1.10;;;;;;;17.60;66.53;100931.66;5007212;28;20418;-74
2023/07/17 04:45:29;;;;;;;7.78;0.88;;;;;;;17.67;66.06;100930.47;5011053;28;20060;-74
2023/07/17 04:47:56;;;;;;;7.03;0.90;;;;;;;17.73;66.20;100922.28;5010927;28;20457;-74
2023/07/17 04:50:26;;;;;;;10.38;1.92;;;;;;;17.81;66.30;100931.66;5010277;28;20492;-74
2023/07/17 04:52:53;;;;;;;8.07;1.00;;;;;;;17.89;65.93;100919.78;5010261;28;20469;-74
2023/07/17 04:55:21;;;;;;;9.35;1.27;;;;;;;17.97;66.02;100932.66;5010990;28;20081;-73
2023/07/17 04:57:48;;;;;;;7.72;0.90;;;;;;;18.02;65.40;100920.09;5010538;28;20100;-74
2023/07/17 05:00:16;;;;;;;10.05;1.67;;;;;;;18.14;65.10;100919.50;5010543;28;20136;-74
2023/07/17 05:02:43;;;;;;;11.65;0.95;;;;;;;18.26;65.04;100925.13;5010558;28;20054;-74
2023/07/17 05:05:10;;;;;;;11.18;1.15;;;;;;;18.35;64.72;100916.75;5010597;28;20092;-74
2023/07/17 05:07:41;;;;;;;11.02;0.90;;;;;;;18.45;64.18;100917.16;5010528;28;20056;-73
2023/07/17 05:10:10;;;;;;;11.70;1.20;;;;;;;18.54;63.60;100912.28;5008768;28;20053;-73
2023/07/17 05:12:39;;;;;;;10.50;0.80;;;;;;;18.69;63.47;100920.38;5009556;28;20058;-74
2023/07/17 05:15:07;;;;;;;13.02;0.95;;;;;;;18.79;63.29;100911.94;5010683;28;20678;-75
2023/07/17 05:17:34;;;;;;;12.90;0.80;;;;;;;18.88;63.67;100910.63;5010192;28;20524;-74
2023/07/17 05:20:04;;;;;;;7.35;1.35;;;;;;;19.01;63.04;100908.19;5010489;28;20632;-74
2023/07/17 05:22:31;;;;;;;4.55;1.33;;;;;;;19.12;63.07;100912.94;5009719;28;20061;-75
2023/07/17 05:25:00;;;;;;;9.18;0.82;;;;;;;19.22;62.66;100919.47;5008957;28;20042;-74
2023/07/17 05:27:27;;;;;;;4.43;0.55;;;;;;;19.32;61.94;100920.69;5009548;28;20050;-75
2023/07/17 05:29:54;;;;;;;5.40;0.57;;;;;;;19.42;61.70;100923.72;5010026;28;20086;-74
2023/07/17 05:32:20;;;;;;;7.55;1.13;;;;;;;19.50;61.23;100925.03;5010144;28;20049;-74
2023/07/17 05:34:48;;;;;;;8.05;1.17;;;;;;;19.53;61.12;100910.75;5010196;28;20053;-75
2023/07/17 05:37:17;;;;;;;7.43;0.80;;;;;;;19.64;60.59;100918.13;5010202;28;20058;-74
2023/07/17 05:39:44;;;;;;;4.88;0.60;;;;;;;19.75;60.59;100918.41;5010117;28;20052;-75
2023/07/17 05:42:12;;;;;;;10.30;1.13;;;;;;;19.82;60.06;100914.50;5009742;28;20050;-74
2023/07/17 05:44:39;;;;;;;7.57;0.52;;;;;;;19.89;59.79;100915.00;5010049;28;20037;-74
2023/07/17 05:47:06;;;;;;;3.50;0.50;;;;;;;19.95;59.56;100909.38;5009482;28;20049;-74
2023/07/17 05:49:33;;;;;;;11.38;1.10;;;;;;;20.02;59.47;100916.06;5010019;28;20576;-74
2023/07/17 05:52:00;;;;;;;8.27;0.60;;;;;;;20.04;59.58;100913.34;5009512;28;20088;-74
2023/07/17 05:54:27;;;;;;;4.22;1.00;;;;;;;20.12;59.58;100911.06;5008309;28;20057;-75
2023/07/17 05:56:54;;;;;;;5.88;1.27;;;;;;;20.15;59.44;100905.59;5009587;28;20046;-74
2023/07/17 05:59:22;;;;;;;7.57;1.05;;;;;;;20.22;59.05;100917.59;5009529;28;20056;-73
2023/07/17 06:01:49;;;;;;;6.60;0.55;;;;;;;20.28;58.69;100906.63;5009200;28;20050;-73
2023/07/17 06:04:16;;;;;;;4.22;0.57;;;;;;;20.31;58.55;100919.72;5009915;28;20684;-74
2023/07/17 06:06:43;;;;;;;6.53;0.70;;;;;;;20.34;58.72;100916.88;5009447;28;20057;-73
2023/07/17 06:09:10;;;;;;;9.63;0.77;;;;;;;20.35;58.10;100908.00;5009507;28;20038;-74
2023/07/17 06:11:37;;;;;;;8.60;0.60;;;;;;;20.38;57.92;100909.63;5008651;28;20177;-74
2023/07/17 06:14:04;;;;;;;12.27;0.82;;;;;;;20.39;58.19;100901.56;5008576;28;20469;-74
2023/07/17 06:16:32;;;;;;;9.05;0.93;;;;;;;20.40;57.94;100897.94;5009434;28;20064;-74
2023/07/17 06:18:59;;;;;;;8.68;0.85;;;;;;;20.43;57.82;100905.75;5008881;28;20064;-74
2023/07/17 06:21:26;;;;;;;8.23;1.15;;;;;;;20.38;58.12;100902.50;5009246;28;20042;-73
2023/07/17 06:23:53;;;;;;;8.00;0.60;;;;;;;20.48;58.02;100909.94;5009181;28;20049;-74
2023/07/17 06:26:20;;;;;;;6.38;0.47;;;;;;;20.47;57.81;100910.91;5009345;28;20410;-73
2023/07/17 06:28:47;;;;;;;8.27;0.73;;;;;;;20.48;57.40;100907.28;5008811;28;20053;-75
2023/07/17 06:31:14;;;;;;;11.27;1.65;;;;;;;20.50;57.33;100911.56;5009421;28;20050;-74
2023/07/17 06:33:42;;;;;;;6.75;0.77;;;;;;;20.47;57.18;100906.44;5009052;28;20078;-73
2023/07/17 06:36:09;;;;;;;6.85;0.70;;;;;;;20.50;57.27;100910.72;5009191;28;20045;-74
2023/07/17 06:38:36;;;;;;;6.18;0.80;;;;;;;20.52;57.10;100912.34;5008942;28;20053;-74
2023/07/17 06:41:04;;;;;;;4.18;0.85;;;;;;;20.54;57.06;100922.88;5005700;28;20050;-73
2023/07/17 06:43:31;;;;;;;12.00;0.93;;;;;;;20.54;57.07;100922.88;5008835;28;20407;-73
2023/07/17 06:45:58;;;;;;;7.13;1.00;;;;;;;20.54;57.10;100917.56;5008924;28;20053;-73
2023/07/17 06:48:25;;;;;;;5.07;0.63;;;;;;;20.55;57.42;100917.50;5008736;28;20050;-74
2023/07/17 06:50:53;;;;;;;8.90;1.15;;;;;;;20.57;57.41;100914.75;5007688;28;20462;-73
2023/07/17 06:53:20;;;;;;;8.45;1.33;;;;;;;20.60;57.45;100917.22;5007230;28;20406;-74
2023/07/17 06:55:47;;;;;;;8.63;0.80;;;;;;;20.61;57.22;100919.78;5008587;28;20053;-74
2023/07/17 06:58:14;;;;;;;16.00;1.10;;;;;;;20.53;56.69;100898.16;5008617;28;20503;-74
2023/07/17 07:00:41;;;;;;;7.97;1.50;;;;;;;20.66;56.96;100911.53;5008708;28;20459;-74
2023/07/17 07:03:08;;;;;;;10.02;0.88;;;;;;;20.67;57.02;100913.28;5007952;28;20057;-74
2023/07/17 07:05:35;;;;;;;12.45;1.63;;;;;;;20.72;56.71;100916.53;5008539;28;20046;-74
2023/07/17 07:08:03;;;;;;;6.38;0.80;;;;;;;20.74;56.84;100909.28;5006364;28;20048;-74
2023/07/17 07:10:30;;;;;;;8.32;0.70;;;;;;;20.76;56.64;100909.22;5008295;28;20085;-74
2023/07/17 07:12:57;;;;;;;7.53;0.82;;;;;;;20.79;56.41;100912.53;5007450;28;20045;-74
2023/07/17 07:15:24;;;;;;;9.95;1.33;;;;;;;20.82;56.15;100899.09;5008394;28;20057;-74
2023/07/17 07:17:51;;;;;;;8.35;0.70;;;;;;;20.88;56.58;100906.69;5006680;28;20554;-74
2023/07/17 07:20:18;;;;;;;8.38;0.60;;;;;;;20.94;57.01;100909.91;5008362;28;20061;-74
2023/07/17 07:22:45;;;;;;;5.13;0.63;;;;;;;21.00;56.34;100898.94;5008077;28;20056;-74
2023/07/17 07:25:13;;;;;;;6.47;0.70;;;;;;;21.06;56.69;100887.94;5008394;28;20558;-74
2023/07/17 07:27:40;;;;;;;8.27;1.25;;;;;;;21.14;56.86;100898.94;5007904;28;20750;-74
2023/07/17 07:30:08;;;;;;;8.77;0.70;;;;;;;21.20;56.09;100898.56;5008207;28;20129;-74
2023/07/17 07:32:35;;;;;;;8.95;0.73;;;;;;;21.27;56.13;100899.91;5007869;28;20053;-74
2023/07/17 07:35:02;;;;;;;5.95;1.10;;;;;;;21.32;55.11;100892.53;5008197;28;20056;-74
2023/07/17 07:37:29;;;;;;;5.88;0.47;;;;;;;21.37;55.26;100891.41;5007887;28;20052;-73
2023/07/17 07:39:56;;;;;;;8.55;0.82;;;;;;;21.43;55.48;100893.69;5007692;28;20077;-75
2023/07/17 07:42:24;;;;;;;7.90;0.80;;;;;;;21.44;55.71;100887.44;5007952;28;20049;-75
2023/07/17 07:44:51;;;;;;;4.57;0.60;;;;;;;21.55;55.80;100885.81;5008183;28;20054;-74
2023/07/17 07:47:18;;;;;;;5.35;0.60;;;;;;;21.66;55.00;100882.50;5007920;28;20046;-74
2023/07/17 07:49:45;;;;;;;5.40;0.50;;;;;;;21.72;55.00;100876.78;5007087;28;20048;-74
2023/07/17 07:52:12;;;;;;;4.07;0.55;;;;;;;21.79;54.70;100886.06;5007098;28;20050;-74
2023/07/17 07:54:39;;;;;;;5.90;0.73;;;;;;;21.83;54.64;100876.09;5007352;28;20521;-74
2023/07/17 07:57:06;;;;;;;5.82;0.45;;;;;;;21.88;54.80;100875.78;5007893;28;20077;-74
2023/07/17 07:59:35;;;;;;;4.75;0.50;;;;;;;21.98;53.87;100880.41;5007775;28;20054;-75
2023/07/17 08:02:02;;;;;;;7.07;0.93;;;;;;;21.90;54.06;100848.16;5007994;28;20164;-75
2023/07/17 08:04:29;;;;;;;4.50;0.68;;;;;;;22.13;53.86;100875.91;5006798;28;20714;-74
2023/07/17 08:06:56;;;;;;;11.20;0.95;;;;;;;22.20;53.53;100879.06;5007520;28;20171;-75
2023/07/17 08:09:23;;;;;;;6.10;0.40;;;;;;;22.25;53.03;100879.59;5007404;28;20046;-74
2023/07/17 08:11:50;;;;;;;4.13;0.40;;;;;;;22.30;52.36;100876.66;5007416;28;20061;-74
2023/07/17 08:14:17;;;;;;;4.85;0.80;;;;;;;22.34;52.54;100884.34;5007551;28;20060;-74
2023/07/17 08:16:45;;;;;;;2.97;0.40;;;;;;;22.42;52.35;100876.66;5007218;28;20050;-74
2023/07/17 08:19:13;;;;;;;6.30;0.45;;;;;;;22.48;52.69;100886.06;5011026;28;20076;-74
2023/07/17 08:21:40;;;;;;;6.15;0.93;;;;;;;22.49;52.28;100870.97;5011599;28;20050;-74
2023/07/17 08:24:07;;;;;;;3.03;0.50;;;;;;;22.58;51.69;100879.19;5011334;28;20049;-74
2023/07/17 08:26:34;;;;;;;6.57;0.40;;;;;;;22.65;50.82;100871.63;5011621;28;20065;-75
2023/07/17 08:29:02;;;;;;;6.45;0.70;;;;;;;22.65;50.96;100867.16;5010149;28;20054;-74
2023/07/17 08:31:31;;;;;;;3.72;0.90;;;;;;;22.74;50.51;100867.47;5011006;28;20050;-74
2023/07/17 08:34:00;;;;;;;3.80;0.43;;;;;;;22.80;49.86;100875.06;5011049;28;20046;-74
2023/07/17 08:36:27;;;;;;;3.17;0.40;;;;;;;22.84;50.45;100865.91;5011105;28;20491;-74
2023/07/17 08:38:54;;;;;;;1.95;0.52;;;;;;;22.89;49.68;100863.78;5011135;28;20050;-74
2023/07/17 08:41:22;;;;;;;2.22;0.30;;;;;;;22.92;50.11;100860.91;5011215;28;20426;-74
2023/07/17 08:43:50;;;;;;;4.50;0.93;;;;;;;22.99;50.35;100869.34;5011116;28;20076;-74
2023/07/17 08:46:17;;;;;;;3.72;0.30;;;;;;;23.03;50.28;100874.38;5011155;28;20133;-74
2023/07/17 08:48:45;;;;;;;5.60;0.43;;;;;;;23.07;49.85;100862.53;5010359;28;20141;-75
2023/07/17 08:51:14;;;;;;;5.90;0.57;;;;;;;23.16;50.60;100862.84;5010816;28;20516;-74
2023/07/17 08:53:44;;;;;;;4.20;0.55;;;;;;;23.19;49.63;100854.63;5010889;28;20499;-77
2023/07/17 08:56:12;;;;;;;5.25;0.38;;;;;;;23.22;49.59;100849.94;5010949;28;20140;-75
2023/07/17 08:58:40;;;;;;;3.53;0.40;;;;;;;23.23;48.85;100853.47;5010605;28;20052;-73
2023/07/17 09:01:07;;;;;;;4.28;0.65;;;;;;;23.28;48.83;100846.00;5010567;28;20061;-74
2023/07/17 09:03:36;;;;;;;4.53;0.40;;;;;;;23.27;49.35;100839.81;5010472;28;20538;-74
2023/07/17 09:06:05;;;;;;;3.20;0.50;;;;;;;23.34;49.48;100832.25;5010726;28;20057;-75
2023/07/17 09:08:33;;;;;;;4.20;0.40;;;;;;;23.34;49.35;100834.91;5010455;28;20053;-74
2023/07/17 09:11:04;;;;;;;3.63;0.82;;;;;;;23.37;49.37;100829.38;5010478;28;20048;-75
2023/07/17 09:13:38;;;;;;;4.65;0.60;;;;;;;23.47;48.97;100833.06;5009061;28;20562;-74
2023/07/17 09:16:17;;;;;;;3.63;0.30;;;;;;;23.51;48.75;100831.91;5010556;28;20054;-75
2023/07/17 09:18:44;;;;;;;3.83;0.60;;;;;;;23.46;48.95;100826.03;5010286;28;20050;-74
2023/07/17 09:21:13;;;;;;;2.53;0.40;;;;;;;23.54;48.62;100831.69;5010413;28;20057;-74
2023/07/17 09:23:44;;;;;;;3.72;0.40;;;;;;;23.56;48.70;100827.09;5010277;28;20061;-74
2023/07/17 09:26:14;;;;;;;4.05;0.70;;;;;;;23.60;48.01;100827.72;5008938;28;20534;-74
2023/07/17 09:28:48;;;;;;;4.18;0.40;;;;;;;23.64;47.54;100831.00;5008855;28;20521;-74
2023/07/17 09:31:16;;;;;;;5.50;0.40;;;;;;;23.69;48.00;100836.88;5009541;28;20056;-75
2023/07/17 09:33:43;;;;;;;5.47;0.32;;;;;;;23.62;47.66;100827.59;5010016;28;20060;-74
2023/07/17 09:36:12;;;;;;;1.85;0.30;;;;;;;23.75;47.12;100837.28;5010474;28;20080;-74
2023/07/17 09:38:38;;;;;;;3.20;0.30;;;;;;;23.75;46.66;100839.97;5010016;28;20104;-74
2023/07/17 09:41:20;;;;;;;6.93;1.23;;;;;;;23.81;46.95;100836.00;5010228;28;20053;-74
2023/07/17 09:43:54;;;;;;;3.97;0.52;;;;;;;23.82;46.55;100831.50;5008746;28;20056;-74
2023/07/17 09:46:21;;;;;;;7.05;0.30;;;;;;;23.77;46.81;100829.19;5010031;28;20056;-74
2023/07/17 09:48:50;;;;;;;2.88;0.30;;;;;;;23.79;46.30;100820.13;5009675;28;20075;-74
2023/07/17 09:51:18;;;;;;;2.40;0.30;;;;;;;23.83;46.80;100823.41;5009436;28;20042;-75
2023/07/17 09:53:46;;;;;;;4.40;0.38;;;;;;;23.84;46.43;100814.44;5008618;28;20564;-74
2023/07/17 09:56:15;;;;;;;6.57;0.40;;;;;;;23.89;47.26;100817.63;5009921;28;20046;-73
2023/07/17 09:58:47;;;;;;;3.28;0.40;;;;;;;23.94;46.97;100811.94;5008641;28;20442;-74
2023/07/17 10:01:17;;;;;;;2.72;0.30;;;;;;;23.99;46.22;100807.09;5009638;28;20104;-74
2023/07/17 10:03:46;;;;;;;4.07;0.30;;;;;;;24.01;46.23;100810.50;5009626;28;20112;-74
2023/07/17 10:06:15;;;;;;;3.72;0.50;;;;;;;24.04;46.77;100817.44;5009989;28;20041;-75
2023/07/17 10:08:46;;;;;;;2.38;0.35;;;;;;;24.06;46.04;100805.69;5009431;28;20053;-74
2023/07/17 10:11:16;;;;;;;2.03;0.30;;;;;;;24.03;45.72;100797.91;5009450;28;20060;-74
2023/07/17 10:13:46;;;;;;;3.58;0.30;;;;;;;24.14;46.20;100815.81;5009257;28;20054;-74
2023/07/17 10:16:16;;;;;;;3.35;0.40;;;;;;;24.16;44.86;100808.50;5009551;28;20046;-74
2023/07/17 10:18:50;;;;;;;3.30;0.30;;;;;;;24.17;44.85;100805.75;5009228;28;20046;-75
2023/07/17 10:21:19;;;;;;;3.45;0.30;;;;;;;24.21;44.71;100809.03;5009004;28;20772;-74
2023/07/17 10:23:47;;;;;;;4.60;0.30;;;;;;;24.23;44.32;100804.44;5008903;28;20141;-75
2023/07/17 10:26:16;;;;;;;3.83;0.82;;;;;;;24.24;44.41;100817.63;5009136;28;20045;-75
2023/07/17 10:28:48;;;;;;;1.98;0.38;;;;;;;24.23;44.65;100807.94;5009031;28;20426;-75
2023/07/17 10:31:18;;;;;;;3.95;0.40;;;;;;;24.21;44.33;100811.69;5009085;28;20073;-74
2023/07/17 10:33:48;;;;;;;2.85;0.40;;;;;;;24.19;44.60;100808.28;5008995;28;20108;-75
2023/07/17 10:36:15;;;;;;;4.47;0.47;;;;;;;24.19;44.15;100809.16;5009072;28;20053;-75
2023/07/17 10:38:48;;;;;;;4.95;1.00;;;;;;;24.18;44.48;100809.25;5008828;28;20060;-74
2023/07/17 10:41:26;;;;;;;4.68;0.40;;;;;;;24.18;44.26;100798.56;5007791;28;20057;-73
2023/07/17 10:43:56;;;;;;;3.97;0.52;;;;;;;24.18;43.98;100801.25;5008876;28;20621;-74
2023/07/17 10:46:28;;;;;;;3.20;0.60;;;;;;;24.17;44.81;100797.72;5006935;28;20056;-73
2023/07/17 10:48:55;;;;;;;2.22;0.30;;;;;;;24.18;44.85;100803.91;5008574;28;20057;-75
2023/07/17 10:51:27;;;;;;;4.63;0.47;;;;;;;24.18;44.95;100796.75;5008673;28;20521;-74
2023/07/17 10:53:56;;;;;;;9.07;0.60;;;;;;;24.17;45.40;100794.22;5008206;28;20064;-74
2023/07/17 10:56:23;;;;;;;3.17;0.30;;;;;;;24.07;44.67;100786.03;5008676;28;20486;-74
2023/07/17 10:58:51;;;;;;;3.28;0.50;;;;;;;24.09;45.31;100778.78;5008600;28;20454;-74
2023/07/17 11:01:19;;;;;;;3.17;0.38;;;;;;;24.04;44.61;100774.75;5008351;28;20064;-74
2023/07/17 11:03:47;;;;;;;3.13;0.60;;;;;;;24.02;45.09;100770.38;5007203;28;20042;-74
2023/07/17 11:06:15;;;;;;;5.63;0.43;;;;;;;23.98;44.98;100774.22;5008194;28;20053;-75
2023/07/17 11:08:42;;;;;;;2.45;0.40;;;;;;;23.94;45.40;100777.25;5007606;28;20546;-74
2023/07/17 11:11:09;;;;;;;7.65;0.50;;;;;;;23.89;45.79;100790.09;5007238;28;20046;-74
2023/07/17 11:13:36;;;;;;;5.07;0.85;;;;;;;23.87;45.70;100776.00;5005498;28;20046;-74
2023/07/17 11:16:07;;;;;;;5.07;0.88;;;;;;;23.84;46.03;100766.41;5008367;28;20050;-74
2023/07/17 11:18:43;;;;;;;3.33;0.40;;;;;;;23.81;45.62;100777.31;5008402;28;20054;-74
2023/07/17 11:21:11;;;;;;;6.32;0.52;;;;;;;23.80;46.23;100791.63;5007868;28;20053;-74
2023/07/17 11:23:45;;;;;;;5.28;0.60;;;;;;;23.79;46.16;100795.22;5008334;28;20054;-74
2023/07/17 11:26:12;;;;;;;6.63;0.60;;;;;;;23.76;45.82;100791.00;5008106;28;20056;-73